Time;durP1;ratioP1;P1;durP2;ratioP2;P2;SDS_P1;SDS_P2;PMS_P1;PMS_P2;Temp;Humidity;BMP_temperature;BMP_pressure;BME280_temperature;BME280_humidity;BME280_pressure;Samples;Min_cycle;Max_cycle;Signal;HPM_P1;HPM_P2
2022/07/20 00:01:01;;;;;;;1.50;1.38;;;;;;;17.80;67.34;100931.13;5043986;28;20045;-61
2022/07/20 00:03:27;;;;;;;0.30;0.30;;;;;;;17.78;67.73;100932.94;5043490;28;20139;-61
2022/07/20 00:05:52;;;;;;;0.95;0.95;;;;;;;17.79;68.22;100934.69;5043706;28;20037;-61
2022/07/20 00:11:19;;;;;;;0.28;0.28;;;;;;;17.79;68.82;100937.31;5043464;28;20052;-61
2022/07/20 00:11:21;;;;;;;0.20;0.20;;;;;;;17.76;68.49;100950.53;5043266;28;20039;-61
2022/07/20 00:13:52;;;;;;;0.38;0.38;;;;;;;17.75;68.66;100943.53;5043663;28;20353;-61
2022/07/20 00:16:18;;;;;;;0.20;0.20;;;;;;;17.73;68.67;100944.50;5043233;28;20069;-61
2022/07/20 00:18:43;;;;;;;0.30;0.30;;;;;;;17.68;68.33;100944.63;5043385;28;20101;-61
2022/07/20 00:21:09;;;;;;;0.25;0.25;;;;;;;17.65;68.06;100950.81;5043552;28;20030;-61
2022/07/20 00:23:34;;;;;;;1.00;1.00;;;;;;;17.64;68.19;100946.50;5043412;28;20018;-61
2022/07/20 00:25:59;;;;;;;1.17;1.17;;;;;;;17.64;68.17;100957.00;5042996;28;20552;-61
2022/07/20 00:28:25;;;;;;;0.60;0.60;;;;;;;17.59;67.75;100962.38;5042993;28;20022;-61
2022/07/20 00:30:50;;;;;;;0.30;0.30;;;;;;;17.60;67.65;100960.63;5043298;28;20033;-61
2022/07/20 00:33:15;;;;;;;0.20;0.20;;;;;;;17.64;67.81;100956.13;5043357;28;20033;-61
2022/07/20 00:35:41;;;;;;;0.20;0.20;;;;;;;17.65;67.75;100960.47;5042490;28;20522;-60
2022/07/20 00:38:06;;;;;;;0.30;0.30;;;;;;;17.65;67.43;100961.31;5043098;28;20029;-61
2022/07/20 00:40:31;;;;;;;0.75;0.75;;;;;;;17.68;67.24;100957.78;5042999;28;20068;-61
2022/07/20 00:42:57;;;;;;;0.28;0.28;;;;;;;17.65;67.38;100955.22;5043256;28;20052;-61
2022/07/20 00:45:22;;;;;;;0.35;0.35;;;;;;;17.63;67.02;100957.03;5043049;28;20026;-61
2022/07/20 00:47:48;;;;;;;0.30;0.30;;;;;;;17.65;67.28;100963.09;5025302;28;20052;-60
2022/07/20 00:50:14;;;;;;;0.20;0.20;;;;;;;17.66;66.90;100960.44;5043242;28;20425;-61
2022/07/20 00:52:40;;;;;;;0.55;0.55;;;;;;;17.69;66.79;100969.97;5042827;28;20056;-61
2022/07/20 00:55:07;;;;;;;0.30;0.30;;;;;;;17.65;67.08;100971.81;5042993;28;20025;-61
2022/07/20 00:57:33;;;;;;;0.40;0.40;;;;;;;17.60;67.08;100965.88;5042534;28;20032;-61
2022/07/20 00:59:59;;;;;;;0.30;0.30;;;;;;;17.55;67.85;100957.25;5043199;28;20081;-61
2022/07/20 01:02:25;;;;;;;0.25;0.25;;;;;;;17.59;68.15;100951.88;5042581;28;20025;-61
2022/07/20 01:04:51;;;;;;;0.30;0.30;;;;;;;17.61;68.42;100954.44;5043118;28;20107;-60
2022/07/20 01:07:17;;;;;;;0.20;0.20;;;;;;;17.58;68.76;100946.66;5042932;28;20095;-61
2022/07/20 01:09:44;;;;;;;0.30;0.30;;;;;;;17.58;69.27;100947.53;5025146;28;20028;-61
2022/07/20 01:12:10;;;;;;;2.45;2.15;;;;;;;17.64;68.80;100950.88;5042619;28;20052;-61
2022/07/20 01:14:36;;;;;;;0.88;0.88;;;;;;;17.68;68.97;100949.88;5043056;28;20086;-61
2022/07/20 01:17:01;;;;;;;0.35;0.35;;;;;;;17.65;68.76;100942.09;5042562;28;20025;-61
2022/07/20 01:19:27;;;;;;;0.50;0.50;;;;;;;17.65;68.38;100939.47;5042706;28;20113;-61
2022/07/20 01:21:52;;;;;;;0.43;0.43;;;;;;;17.73;67.21;100934.00;5042799;28;20473;-61
2022/07/20 01:24:18;;;;;;;0.75;0.75;;;;;;;17.78;66.30;100947.84;5042783;28;20436;-60
2022/07/20 01:26:45;;;;;;;0.30;0.30;;;;;;;17.78;66.06;100951.31;5042378;28;20033;-60
2022/07/20 01:29:12;;;;;;;0.50;0.50;;;;;;;17.86;65.91;100948.47;5042370;28;20037;-60
2022/07/20 01:31:37;;;;;;;0.40;0.40;;;;;;;17.91;65.45;100953.56;5042705;28;20624;-60
2022/07/20 01:34:03;;;;;;;0.30;0.30;;;;;;;17.91;65.52;100958.81;5042551;28;20048;-61
2022/07/20 01:36:29;;;;;;;0.20;0.20;;;;;;;17.88;65.58;100948.41;5042667;28;20025;-61
2022/07/20 01:38:54;;;;;;;1.02;0.98;;;;;;;17.79;65.51;100945.19;5042210;28;20065;-61
2022/07/20 01:41:20;;;;;;;0.30;0.30;;;;;;;17.82;65.53;100947.72;5042487;28;20051;-62
2022/07/20 01:43:45;;;;;;;0.30;0.30;;;;;;;17.81;65.56;100940.72;5042489;28;20021;-61
2022/07/20 01:46:11;;;;;;;0.30;0.30;;;;;;;17.80;65.23;100951.28;5042341;28;20045;-61
2022/07/20 01:48:36;;;;;;;0.30;0.30;;;;;;;17.78;64.91;100943.44;5045804;28;20027;-61
2022/07/20 01:51:02;;;;;;;0.20;0.20;;;;;;;17.75;64.57;100942.69;5046075;28;20032;-62
2022/07/20 01:53:27;;;;;;;0.20;0.20;;;;;;;17.72;64.36;100941.00;5045775;28;20022;-61
2022/07/20 01:55:53;;;;;;;0.32;0.32;;;;;;;17.68;64.35;100939.38;5045803;28;20053;-61
2022/07/20 01:58:19;;;;;;;0.45;0.45;;;;;;;17.66;64.53;100933.31;5045881;28;20025;-61
2022/07/20 02:00:45;;;;;;;0.20;0.20;;;;;;;17.68;64.67;100928.88;5028062;28;20091;-61
2022/07/20 02:03:10;;;;;;;2.85;2.47;;;;;;;17.66;64.66;100915.81;5045793;28;20062;-62
2022/07/20 02:05:36;;;;;;;0.20;0.20;;;;;;;17.62;64.91;100919.41;5046051;28;20022;-61
2022/07/20 02:08:01;;;;;;;0.30;0.30;;;;;;;17.58;65.11;100915.16;5045766;28;20057;-61
2022/07/20 02:10:27;;;;;;;1.15;1.13;;;;;;;17.52;65.22;100910.97;5045265;28;20036;-62
2022/07/20 02:12:52;;;;;;;33.53;2.60;;;;;;;17.52;64.81;100913.59;5045695;28;20033;-62
2022/07/20 02:18:09;;;;;;;0.30;0.30;;;;;;;17.51;63.61;100901.34;5045733;28;20036;-61
2022/07/20 02:20:35;;;;;;;0.30;0.30;;;;;;;17.51;63.04;100893.47;5045505;28;20033;-61
2022/07/20 02:23:03;;;;;;;0.20;0.20;;;;;;;17.50;62.92;100893.53;5045340;28;20021;-61
2022/07/20 02:25:29;;;;;;;0.20;0.20;;;;;;;17.48;62.88;100888.31;5045190;28;20036;-62
2022/07/20 02:27:54;;;;;;;0.40;0.40;;;;;;;17.42;62.96;100881.50;5045441;28;20026;-61
2022/07/20 02:30:20;;;;;;;2.20;0.98;;;;;;;17.41;62.52;100882.41;5044797;28;20049;-61
2022/07/20 02:32:46;;;;;;;0.20;0.20;;;;;;;17.42;62.36;100883.25;5044997;28;20033;-61
2022/07/20 02:35:11;;;;;;;0.40;0.40;;;;;;;17.46;62.12;100880.50;5045478;28;20108;-61
2022/07/20 02:37:36;;;;;;;0.20;0.20;;;;;;;17.53;61.75;100880.31;5045150;28;20028;-62
2022/07/20 02:40:03;;;;;;;0.75;0.75;;;;;;;17.58;61.26;100878.41;5045392;28;20033;-61
2022/07/20 02:42:28;;;;;;;1.00;0.90;;;;;;;17.65;60.98;100879.09;5044940;28;20029;-61
2022/07/20 02:44:53;;;;;;;0.28;0.28;;;;;;;17.65;60.67;100873.84;5045161;28;20040;-61
2022/07/20 02:47:19;;;;;;;0.30;0.30;;;;;;;17.66;60.74;100876.41;5027041;28;20053;-61
2022/07/20 02:49:44;;;;;;;0.30;0.30;;;;;;;17.65;61.08;100879.09;5045016;28;20031;-62
2022/07/20 02:52:09;;;;;;;0.20;0.20;;;;;;;17.63;60.87;100870.41;5044936;28;20036;-61
2022/07/20 02:54:35;;;;;;;0.30;0.30;;;;;;;17.61;61.05;100864.31;5027119;28;20034;-62
2022/07/20 02:57:00;;;;;;;0.40;0.40;;;;;;;17.61;60.74;100867.81;5044812;28;20025;-61
2022/07/20 02:59:25;;;;;;;0.30;0.30;;;;;;;17.63;60.57;100862.53;5044001;28;20067;-61
2022/07/20 03:01:51;;;;;;;0.20;0.20;;;;;;;17.63;60.59;100870.41;5044893;28;20028;-61
2022/07/20 03:04:17;;;;;;;1.75;1.25;;;;;;;17.65;60.58;100876.47;5044632;28;20021;-61
2022/07/20 03:06:42;;;;;;;0.60;0.60;;;;;;;17.68;60.81;100871.97;5044630;28;20025;-61
2022/07/20 03:09:08;;;;;;;0.22;0.22;;;;;;;17.79;60.65;100886.53;5044724;28;20022;-61
2022/07/20 03:11:33;;;;;;;0.20;0.20;;;;;;;17.86;60.66;100888.06;5044613;28;20032;-62
2022/07/20 03:13:58;;;;;;;0.22;0.22;;;;;;;17.96;60.32;100886.00;5044493;28;20453;-62
2022/07/20 03:16:24;;;;;;;0.20;0.20;;;;;;;18.04;60.41;100886.63;5044353;28;20025;-61
2022/07/20 03:18:49;;;;;;;0.20;0.20;;;;;;;18.09;60.50;100895.22;5044359;28;20044;-62
2022/07/20 03:21:15;;;;;;;0.40;0.40;;;;;;;18.14;60.36;100897.72;5026610;28;20172;-61
2022/07/20 03:23:40;;;;;;;1.08;1.08;;;;;;;18.22;60.20;100900.09;5044558;28;20049;-62
2022/07/20 03:26:05;;;;;;;0.47;0.47;;;;;;;18.30;60.15;100907.75;5044271;28;20026;-62
2022/07/20 03:28:31;;;;;;;0.45;0.45;;;;;;;18.35;60.05;100904.94;5044374;28;20029;-62
2022/07/20 03:30:56;;;;;;;0.20;0.20;;;;;;;18.43;60.15;100913.44;5044159;28;20047;-61
2022/07/20 03:33:22;;;;;;;0.20;0.20;;;;;;;18.52;59.91;100914.91;5043920;28;20424;-61
2022/07/20 03:35:47;;;;;;;0.40;0.40;;;;;;;18.61;60.04;100913.75;5044102;28;20419;-61
2022/07/20 03:38:12;;;;;;;0.20;0.20;;;;;;;18.69;59.85;100909.91;5044038;28;20025;-62
2022/07/20 03:40:38;;;;;;;0.20;0.20;;;;;;;18.75;59.62;100908.88;5043920;28;20021;-62
2022/07/20 03:43:03;;;;;;;0.30;0.30;;;;;;;18.85;59.54;100917.28;5043972;28;20513;-62
2022/07/20 03:45:28;;;;;;;0.30;0.30;;;;;;;18.99;59.41;100916.81;5043818;28;20048;-60
2022/07/20 03:47:54;;;;;;;0.63;0.63;;;;;;;19.14;59.68;100917.16;5043640;28;20049;-62
2022/07/20 03:50:20;;;;;;;0.30;0.30;;;;;;;19.30;59.60;100922.72;5043985;28;20033;-62
2022/07/20 03:52:45;;;;;;;0.20;0.20;;;;;;;19.52;59.15;100930.69;5043678;28;20068;-62
2022/07/20 03:55:11;;;;;;;0.28;0.28;;;;;;;19.55;58.45;100919.19;5043689;28;20041;-62
2022/07/20 03:57:36;;;;;;;0.35;0.35;;;;;;;19.46;58.25;100920.38;5043650;28;20029;-62
2022/07/20 04:00:02;;;;;;;0.28;0.28;;;;;;;19.36;57.99;100924.28;5043794;28;20053;-59
2022/07/20 04:02:27;;;;;;;0.22;0.22;;;;;;;19.26;57.82;100918.50;5043526;28;20032;-59
2022/07/20 04:04:52;;;;;;;0.20;0.20;;;;;;;19.13;58.34;100923.34;5043590;28;20027;-62
2022/07/20 04:07:18;;;;;;;0.20;0.20;;;;;;;18.99;58.87;100923.84;5043385;28;20029;-60
2022/07/20 04:09:48;;;;;;;0.68;0.68;;;;;;;18.90;58.84;100920.59;5043284;28;20085;-60
2022/07/20 04:12:20;;;;;;;0.30;0.30;;;;;;;18.85;59.21;100916.44;5043283;28;20029;-61
2022/07/20 04:14:47;;;;;;;0.50;0.50;;;;;;;18.80;59.42;100927.13;5043370;28;20024;-60
2022/07/20 04:17:13;;;;;;;0.20;0.20;;;;;;;18.74;59.66;100917.66;5043392;28;20040;-60
2022/07/20 04:19:39;;;;;;;0.30;0.30;;;;;;;18.85;60.05;100929.59;5043477;28;20033;-60
2022/07/20 04:22:04;;;;;;;1.58;1.48;;;;;;;18.82;60.14;100926.13;5043497;28;20032;-60
2022/07/20 04:24:30;;;;;;;0.20;0.20;;;;;;;18.77;60.19;100927.22;5043442;28;20028;-60
2022/07/20 04:26:55;;;;;;;0.30;0.30;;;;;;;18.61;60.45;100919.84;5043151;28;20033;-60
2022/07/20 04:29:22;;;;;;;0.20;0.20;;;;;;;18.55;60.60;100918.28;5043219;28;20017;-60
2022/07/20 04:31:48;;;;;;;0.40;0.40;;;;;;;18.53;61.07;100914.00;5043302;28;20432;-60
2022/07/20 04:34:13;;;;;;;0.35;0.35;;;;;;;18.52;61.18;100918.41;5043234;28;20473;-60
2022/07/20 04:36:39;;;;;;;0.30;0.30;;;;;;;18.52;61.36;100921.03;5043156;28;20128;-60
2022/07/20 04:39:04;;;;;;;1.83;1.73;;;;;;;18.62;61.04;100920.72;5042946;28;20022;-60
2022/07/20 04:41:30;;;;;;;0.40;0.40;;;;;;;18.89;60.91;100920.66;5040764;28;20037;-60
2022/07/20 04:43:55;;;;;;;0.20;0.20;;;;;;;19.20;60.44;100922.25;5039609;28;20017;-60
2022/07/20 04:46:20;;;;;;;0.30;0.30;;;;;;;19.55;59.25;100908.66;5039921;28;20068;-60
2022/07/20 04:48:46;;;;;;;0.30;0.30;;;;;;;19.85;58.49;100923.31;5042877;28;20029;-60
2022/07/20 04:51:11;;;;;;;0.20;0.20;;;;;;;20.13;57.98;100909.94;5043090;28;20021;-60
2022/07/20 04:53:36;;;;;;;1.13;0.50;;;;;;;20.45;57.24;100916.59;5042976;28;20025;-61
2022/07/20 04:56:02;;;;;;;0.82;0.82;;;;;;;20.70;56.07;100907.63;5042884;28;20098;-60
2022/07/20 04:58:31;;;;;;;0.20;0.20;;;;;;;20.87;55.80;100913.03;5042951;28;20064;-60
2022/07/20 05:00:56;;;;;;;0.20;0.20;;;;;;;21.12;55.33;100909.31;5043212;28;20032;-59
2022/07/20 05:03:22;;;;;;;0.57;0.40;;;;;;;21.29;55.05;100902.41;5042291;28;20069;-60
2022/07/20 05:05:47;;;;;;;0.20;0.20;;;;;;;21.41;54.24;100901.84;5209876;22;20068;-59
2022/07/20 05:08:12;;;;;;;0.43;0.43;;;;;;;21.50;54.25;100897.91;5062423;28;20029;-60
2022/07/20 05:10:38;;;;;;;0.20;0.20;;;;;;;21.61;53.67;100894.78;5044666;28;20063;-60
2022/07/20 05:13:03;;;;;;;0.20;0.20;;;;;;;21.69;53.47;100902.34;5062815;28;20090;-60
2022/07/20 05:15:29;;;;;;;0.52;0.52;;;;;;;21.92;52.91;100903.03;5062480;28;20024;-59
2022/07/20 05:17:54;;;;;;;0.20;0.20;;;;;;;22.03;52.70;100908.66;5062580;28;20035;-60
2022/07/20 05:20:19;;;;;;;0.20;0.20;;;;;;;22.09;52.51;100902.25;5063061;28;20025;-60
2022/07/20 05:22:45;;;;;;;0.20;0.20;;;;;;;22.16;52.23;100902.75;5064757;28;20080;-60
2022/07/20 05:25:11;;;;;;;0.52;0.52;;;;;;;22.23;52.05;100896.25;5066059;28;20025;-62
2022/07/20 05:27:36;;;;;;;0.30;0.30;;;;;;;22.24;51.41;100899.75;5066410;28;20154;-62
2022/07/20 05:30:02;;;;;;;0.30;0.30;;;;;;;22.27;50.76;100897.81;5048403;28;20385;-60
2022/07/20 05:32:27;;;;;;;0.20;0.20;;;;;;;22.24;50.38;100891.81;5066346;28;20056;-60
2022/07/20 05:34:54;;;;;;;0.30;0.30;;;;;;;22.25;51.51;100896.19;5066485;28;20024;-60
2022/07/20 05:37:20;;;;;;;0.95;0.95;;;;;;;22.57;50.72;100895.47;5065784;28;20474;-60
2022/07/20 05:39:45;;;;;;;0.20;0.20;;;;;;;22.88;49.60;100893.88;5066121;28;20021;-59
2022/07/20 05:42:10;;;;;;;0.20;0.20;;;;;;;22.97;49.75;100895.22;5066093;28;20052;-59
2022/07/20 05:44:35;;;;;;;0.20;0.20;;;;;;;23.18;49.09;100898.47;5066226;28;20025;-61
2022/07/20 05:47:01;;;;;;;0.20;0.20;;;;;;;23.45;48.67;100884.69;5066209;28;20028;-62
2022/07/20 05:49:26;;;;;;;0.20;0.20;;;;;;;23.66;46.51;100889.72;5066167;28;20029;-61
2022/07/20 05:51:52;;;;;;;0.68;0.68;;;;;;;23.42;47.42;100890.16;5066169;28;20503;-61
2022/07/20 05:54:17;;;;;;;0.20;0.20;;;;;;;23.40;47.75;100892.91;5065923;28;20021;-60
2022/07/20 05:56:42;;;;;;;0.13;0.13;;;;;;;23.44;47.17;100888.28;5065847;28;20503;-59
2022/07/20 05:59:08;;;;;;;0.30;0.30;;;;;;;23.41;47.38;100891.13;5047820;28;20112;-60
2022/07/20 06:01:34;;;;;;;2.35;2.15;;;;;;;23.39;47.37;100892.97;5065917;28;20036;-60
2022/07/20 06:03:59;;;;;;;0.55;0.55;;;;;;;23.48;46.67;100889.81;5065706;28;20037;-60
2022/07/20 06:06:25;;;;;;;0.30;0.30;;;;;;;23.51;47.05;100879.03;5047499;28;20052;-60
2022/07/20 06:08:50;;;;;;;0.20;0.20;;;;;;;23.67;46.90;100883.50;5065618;28;20037;-60
2022/07/20 06:11:15;;;;;;;0.20;0.20;;;;;;;23.83;46.65;100882.63;5065271;28;20023;-60
2022/07/20 06:13:41;;;;;;;0.90;0.90;;;;;;;24.01;45.78;100881.56;5065805;28;20060;-60
2022/07/20 06:16:06;;;;;;;2.97;2.75;;;;;;;24.17;45.90;100882.50;5065533;28;20032;-60
2022/07/20 06:18:32;;;;;;;0.35;0.35;;;;;;;24.20;45.37;100885.81;5065267;28;20048;-60
2022/07/20 06:20:57;;;;;;;0.55;0.55;;;;;;;24.35;45.80;100885.88;5065425;28;20048;-60
2022/07/20 06:23:23;;;;;;;0.10;0.10;;;;;;;24.67;46.58;100883.06;5065395;28;20058;-60
2022/07/20 06:25:48;;;;;;;0.20;0.20;;;;;;;25.11;44.95;100885.78;5047336;28;20045;-61
2022/07/20 06:28:13;;;;;;;0.10;0.10;;;;;;;25.37;43.78;100891.22;5065231;28;20032;-60
2022/07/20 06:30:39;;;;;;;0.52;0.52;;;;;;;25.35;43.19;100885.19;5065188;28;20021;-61
2022/07/20 06:33:04;;;;;;;0.10;0.10;;;;;;;25.33;43.56;100890.59;5064047;28;20036;-60
2022/07/20 06:35:29;;;;;;;0.47;0.47;;;;;;;25.40;43.44;100888.38;5046747;28;20044;-61
2022/07/20 06:37:56;;;;;;;0.20;0.20;;;;;;;25.54;42.85;100884.00;5064787;28;20021;-60
2022/07/20 06:40:21;;;;;;;8.40;2.15;;;;;;;25.53;43.20;100891.09;5065139;28;20048;-60
2022/07/20 06:42:47;;;;;;;0.30;0.30;;;;;;;25.56;42.54;100884.75;5046992;28;20095;-60
2022/07/20 06:45:12;;;;;;;0.45;0.45;;;;;;;25.67;43.08;100887.56;5064920;28;20021;-60
2022/07/20 06:47:38;;;;;;;0.85;0.80;;;;;;;25.72;42.42;100879.31;5064899;28;20024;-60
2022/07/20 06:50:04;;;;;;;0.10;0.10;;;;;;;25.73;43.04;100878.38;5046731;28;20035;-59
2022/07/20 06:52:33;;;;;;;0.20;0.20;;;;;;;25.92;42.63;100875.34;5064780;28;20115;-60
2022/07/20 06:54:58;;;;;;;0.20;0.20;;;;;;;26.04;41.94;100878.97;5064876;28;20040;-60
2022/07/20 06:57:24;;;;;;;0.20;0.20;;;;;;;25.89;41.82;100878.22;5064328;28;20021;-59
2022/07/20 06:59:49;;;;;;;0.20;0.20;;;;;;;25.80;42.24;100882.31;5064802;28;20056;-61
2022/07/20 07:02:15;;;;;;;0.20;0.20;;;;;;;25.92;42.21;100885.97;5064556;28;20017;-60
2022/07/20 07:04:41;;;;;;;3.10;1.55;;;;;;;25.96;41.85;100874.19;5064569;28;20074;-60
2022/07/20 07:07:06;;;;;;;0.65;0.65;;;;;;;25.89;42.42;100875.56;5064393;28;20065;-59
2022/07/20 07:09:32;;;;;;;0.20;0.20;;;;;;;25.84;42.00;100882.97;5046551;28;20031;-60
2022/07/20 07:11:57;;;;;;;0.20;0.20;;;;;;;25.79;43.29;100879.75;5064475;28;20154;-60
2022/07/20 07:14:23;;;;;;;0.30;0.30;;;;;;;26.12;43.47;100881.13;5064658;28;20060;-60
2022/07/20 07:16:49;;;;;;;0.40;0.40;;;;;;;26.64;42.36;100883.88;5064471;28;20084;-60
2022/07/20 07:19:14;;;;;;;1.27;0.50;;;;;;;26.88;41.28;100882.28;5064279;28;20024;-60
2022/07/20 07:21:39;;;;;;;0.20;0.20;;;;;;;26.86;41.10;100871.72;5064130;28;20028;-60
2022/07/20 07:24:05;;;;;;;0.20;0.20;;;;;;;26.96;41.90;100885.25;5064343;28;20077;-60
2022/07/20 07:26:30;;;;;;;0.68;0.68;;;;;;;27.40;41.46;100872.38;5046197;28;20028;-60
2022/07/20 07:28:56;;;;;;;0.10;0.10;;;;;;;28.06;40.39;100867.63;5064128;28;20502;-60
2022/07/20 07:31:21;;;;;;;0.40;0.40;;;;;;;28.32;39.70;100868.31;5064160;28;20013;-61
2022/07/20 07:33:47;;;;;;;0.30;0.30;;;;;;;28.32;38.80;100870.97;5063808;28;20404;-59
2022/07/20 07:36:14;;;;;;;0.10;0.10;;;;;;;28.07;39.54;100855.97;5064022;28;20049;-60
2022/07/20 07:38:40;;;;;;;0.55;0.55;;;;;;;28.00;39.46;100849.41;5063868;28;20423;-60
2022/07/20 07:41:05;;;;;;;0.30;0.30;;;;;;;28.30;39.38;100864.03;5063670;28;20039;-60
2022/07/20 07:43:30;;;;;;;2.60;0.85;;;;;;;28.40;38.82;100859.75;5063802;28;20033;-60
2022/07/20 07:45:56;;;;;;;0.30;0.30;;;;;;;28.55;39.36;100862.16;5063391;28;20029;-60
2022/07/20 07:48:21;;;;;;;0.10;0.10;;;;;;;28.76;38.40;100853.44;5045737;28;20029;-60
2022/07/20 07:50:47;;;;;;;0.65;0.65;;;;;;;28.86;38.86;100858.91;5063732;28;20080;-60
2022/07/20 07:53:13;;;;;;;0.10;0.10;;;;;;;29.14;37.95;100859.41;5063718;28;20025;-60
2022/07/20 07:55:39;;;;;;;0.20;0.20;;;;;;;29.17;38.08;100860.00;5063639;28;20100;-60
2022/07/20 07:58:06;;;;;;;0.13;0.13;;;;;;;29.34;39.00;100864.94;5063246;28;20028;-61
2022/07/20 08:00:31;;;;;;;0.17;0.17;;;;;;;30.06;38.20;100865.31;5063767;28;20029;-60
2022/07/20 08:02:57;;;;;;;1.27;1.23;;;;;;;30.62;37.79;100863.28;5063472;28;20060;-59
2022/07/20 08:05:22;;;;;;;0.10;0.10;;;;;;;30.94;35.68;100860.59;5063303;28;20060;-60
2022/07/20 08:07:48;;;;;;;0.17;0.17;;;;;;;30.85;35.87;100862.28;5063638;28;20124;-60
2022/07/20 08:10:14;;;;;;;0.40;0.40;;;;;;;30.84;36.29;100858.72;5063773;28;20041;-60
2022/07/20 08:12:39;;;;;;;0.13;0.13;;;;;;;30.90;34.88;100857.34;5063301;28;20029;-59
2022/07/20 08:15:05;;;;;;;0.90;0.90;;;;;;;30.80;35.20;100865.31;5063206;28;20028;-61
2022/07/20 08:17:31;;;;;;;0.50;0.50;;;;;;;30.87;35.13;100865.66;5063364;28;20025;-60
2022/07/20 08:19:56;;;;;;;0.30;0.30;;;;;;;30.82;34.70;100863.38;5063559;28;20051;-59
2022/07/20 08:22:22;;;;;;;0.30;0.30;;;;;;;30.77;35.14;100858.38;5063261;28;20020;-60
2022/07/20 08:24:47;;;;;;;0.20;0.20;;;;;;;30.96;35.38;100856.78;5063395;28;20021;-60
2022/07/20 08:27:13;;;;;;;0.20;0.20;;;;;;;31.00;34.49;100852.00;5062843;28;20464;-59
2022/07/20 08:29:38;;;;;;;0.38;0.38;;;;;;;30.77;34.60;100865.56;5045234;28;20110;-59
2022/07/20 08:32:04;;;;;;;2.67;1.27;;;;;;;30.61;35.37;100853.53;5063244;28;20036;-59
2022/07/20 08:34:29;;;;;;;0.57;0.55;;;;;;;30.80;35.60;100859.97;5063117;28;20024;-59
2022/07/20 08:36:55;;;;;;;0.20;0.20;;;;;;;30.83;35.35;100857.03;5063285;28;20105;-60
2022/07/20 08:39:20;;;;;;;0.52;0.52;;;;;;;30.92;35.16;100863.41;5063144;28;20089;-60
2022/07/20 08:41:46;;;;;;;0.28;0.28;;;;;;;30.80;34.99;100865.31;5062876;28;20036;-59
2022/07/20 08:44:11;;;;;;;0.20;0.20;;;;;;;31.15;34.91;100869.41;5063060;28;20017;-60
2022/07/20 08:46:37;;;;;;;0.28;0.28;;;;;;;31.40;34.78;100861.00;5063106;28;20384;-58
2022/07/20 08:49:03;;;;;;;0.10;0.10;;;;;;;31.93;34.52;100863.41;5045245;28;20087;-58
2022/07/20 08:51:29;;;;;;;0.30;0.30;;;;;;;32.59;34.16;100851.00;5063041;28;20029;-60
2022/07/20 08:53:56;;;;;;;0.15;0.15;;;;;;;33.18;33.25;100857.13;5062961;28;20037;-60
2022/07/20 08:56:21;;;;;;;0.10;0.10;;;;;;;33.85;33.09;100851.38;5063121;28;20024;-59
2022/07/20 08:58:47;;;;;;;0.20;0.20;;;;;;;33.84;30.49;100852.38;5066891;28;20032;-60
2022/07/20 09:01:17;;;;;;;0.30;0.30;;;;;;;33.53;31.84;100851.91;5067297;28;20033;-61
2022/07/20 09:03:44;;;;;;;4.80;2.05;;;;;;;33.66;31.33;100859.63;5049078;28;20032;-60
2022/07/20 09:06:10;;;;;;;0.10;0.10;;;;;;;33.80;30.94;100851.00;5066721;28;20083;-59
2022/07/20 09:08:57;;;;;;;0.20;0.20;;;;;;;34.00;31.15;100850.81;5066727;28;20050;-62
2022/07/20 09:11:25;;;;;;;0.30;0.30;;;;;;;34.19;29.39;100854.31;5066832;28;20024;-61
2022/07/20 09:13:50;;;;;;;0.88;0.63;;;;;;;34.11;29.87;100852.38;5066796;28;20031;-61
2022/07/20 09:16:30;;;;;;;0.80;0.80;;;;;;;33.98;29.85;100860.91;5032301;28;20028;-60
2022/07/20 09:18:55;;;;;;;0.10;0.10;;;;;;;33.88;30.04;100861.81;5066880;28;20021;-60
2022/07/20 09:21:29;;;;;;;0.25;0.25;;;;;;;34.05;30.37;100861.97;5066814;28;20036;-60
2022/07/20 09:23:56;;;;;;;0.70;0.55;;;;;;;34.47;30.02;100855.03;5066587;28;20025;-59
2022/07/20 09:26:22;;;;;;;0.20;0.20;;;;;;;34.53;27.48;100858.06;5066877;28;20137;-59
2022/07/20 09:28:53;;;;;;;0.10;0.10;;;;;;;33.67;28.33;100855.94;5066632;28;20048;-61
2022/07/20 09:31:22;;;;;;;0.30;0.30;;;;;;;33.04;28.84;100845.84;5066775;28;20051;-62
2022/07/20 09:33:57;;;;;;;4.13;1.63;;;;;;;32.42;29.56;100841.84;5066031;28;20025;-62
2022/07/20 09:36:25;;;;;;;0.10;0.10;;;;;;;31.94;30.01;100857.03;5066612;28;20024;-62
2022/07/20 09:38:51;;;;;;;1.98;0.73;;;;;;;31.46;31.51;100860.44;5066186;28;20029;-61
2022/07/20 09:41:31;;;;;;;1.23;1.23;;;;;;;31.77;31.81;100860.34;5066371;28;20035;-61
2022/07/20 09:43:59;;;;;;;0.43;0.43;;;;;;;32.27;30.02;100866.50;5066275;28;20009;-61
2022/07/20 09:46:32;;;;;;;0.25;0.25;;;;;;;31.99;30.64;100865.56;5066096;28;20025;-60
2022/07/20 09:49:01;;;;;;;11.30;1.20;;;;;;;32.15;31.46;100855.09;5065897;28;20017;-59
2022/07/20 09:51:41;;;;;;;0.50;0.50;;;;;;;32.74;29.76;100867.50;5066070;28;20067;-59
2022/07/20 09:54:07;;;;;;;0.10;0.10;;;;;;;32.61;29.40;100858.94;5065862;28;20028;-59
2022/07/20 09:56:35;;;;;;;0.28;0.28;;;;;;;32.45;28.97;100859.50;5065898;28;20029;-59
2022/07/20 09:59:04;;;;;;;0.20;0.20;;;;;;;32.18;29.63;100858.47;5048046;28;20174;-59
2022/07/20 10:01:35;;;;;;;0.50;0.50;;;;;;;32.09;30.35;100857.50;5066042;28;20539;-60
2022/07/20 10:04:04;;;;;;;0.20;0.20;;;;;;;32.45;30.48;100864.88;5066112;28;20078;-59
2022/07/20 10:06:29;;;;;;;1.20;1.10;;;;;;;33.18;29.45;100847.19;5065614;28;20045;-60
2022/07/20 10:08:55;;;;;;;0.20;0.20;;;;;;;33.44;28.33;100842.91;5065385;28;20186;-59
2022/07/20 10:11:23;;;;;;;0.13;0.13;;;;;;;33.45;28.45;100850.81;5065725;28;20021;-60
2022/07/20 10:13:50;;;;;;;0.10;0.10;;;;;;;33.60;27.48;100863.75;5065446;28;20093;-59
2022/07/20 10:16:24;;;;;;;0.50;0.50;;;;;;;33.44;28.01;100869.81;5065858;28;20086;-59
2022/07/20 10:18:51;;;;;;;1.55;1.45;;;;;;;33.47;27.45;100854.22;5065485;28;20029;-60
2022/07/20 10:21:39;;;;;;;0.22;0.22;;;;;;;33.53;27.67;100857.28;5065424;28;20028;-59
2022/07/20 10:24:34;;;;;;;0.10;0.10;;;;;;;33.41;27.02;100846.75;5065425;28;20021;-59
2022/07/20 10:27:02;;;;;;;0.10;0.10;;;;;;;33.33;27.16;100849.34;5065455;28;20036;-60
2022/07/20 10:29:40;;;;;;;0.20;0.20;;;;;;;33.02;28.32;100846.00;5065415;28;20051;-59
2022/07/20 10:32:08;;;;;;;2.72;2.58;;;;;;;33.16;27.30;100841.13;5065572;28;20035;-60
2022/07/20 10:34:38;;;;;;;0.30;0.30;;;;;;;33.03;27.82;100833.41;5065097;28;20037;-61
2022/07/20 10:37:39;;;;;;;0.10;0.10;;;;;;;32.93;28.11;100848.72;5065430;28;20040;-59
2022/07/20 10:40:14;;;;;;;0.65;0.65;;;;;;;33.16;28.29;100835.75;5065163;28;20017;-59
2022/07/20 10:42:43;;;;;;;1.55;1.45;;;;;;;33.33;28.26;100835.91;5065245;28;20093;-59
2022/07/20 10:45:14;;;;;;;0.10;0.10;;;;;;;33.51;28.17;100838.63;5065255;28;20025;-59
2022/07/20 10:47:55;;;;;;;0.30;0.30;;;;;;;33.52;28.37;100824.16;5065022;28;20048;-60
2022/07/20 10:50:43;;;;;;;1.77;1.67;;;;;;;33.65;27.40;100822.94;5064882;28;20031;-59
2022/07/20 10:53:15;;;;;;;8.10;0.93;;;;;;;33.06;27.39;100811.59;5046960;28;20457;-59
2022/07/20 10:56:02;;;;;;;0.20;0.20;;;;;;;32.77;28.32;100815.28;5065040;28;20464;-59
2022/07/20 10:58:33;;;;;;;0.22;0.22;;;;;;;32.64;27.75;100810.25;5065031;28;20048;-60
2022/07/20 11:01:01;;;;;;;;;;;;;;;32.49;27.77;100815.25;5065466;28;20029;-59
2022/07/20 11:03:29;;;;;;;1.60;1.55;;;;;;;32.46;26.87;100812.88;5064911;28;20331;-59
2022/07/20 11:06:07;;;;;;;1.30;1.20;;;;;;;32.05;27.76;100810.47;5064748;28;20045;-59
2022/07/20 11:08:34;;;;;;;0.95;0.95;;;;;;;31.70;27.84;100812.72;5064517;28;20528;-58
2022/07/20 11:11:01;;;;;;;0.13;0.13;;;;;;;31.43;27.83;100804.41;5064313;28;20037;-59
2022/07/20 11:13:26;;;;;;;1.02;0.80;;;;;;;31.25;28.34;100805.06;5064648;28;20028;-58
2022/07/20 11:15:58;;;;;;;1.67;0.85;;;;;;;31.25;28.02;100809.56;5064281;28;20070;-59
2022/07/20 11:18:26;;;;;;;0.17;0.17;;;;;;;31.08;27.24;100811.97;5064624;28;20021;-59
2022/07/20 11:20:51;;;;;;;0.32;0.32;;;;;;;30.81;27.34;100805.41;5063845;28;20024;-61
2022/07/20 11:23:19;;;;;;;0.65;0.65;;;;;;;30.70;26.91;100805.47;5064387;28;20103;-60
2022/07/20 11:25:49;;;;;;;0.80;0.80;;;;;;;30.44;27.38;100801.44;5064580;28;20044;-60